Time;durP1;ratioP1;P1;durP2;ratioP2;P2;SDS_P1;SDS_P2;PMS_P1;PMS_P2;Temp;Humidity;BMP_temperature;BMP_pressure;BME280_temperature;BME280_humidity;BME280_pressure;Samples;Min_cycle;Max_cycle;Signal;HPM_P1;HPM_P2
2021/09/14 00:00:55;;;;;;;7.03;4.25;;;18.20;92.40;;;;;;5070830;28;20029;-80
2021/09/14 00:03:21;;;;;;;6.07;4.72;;;18.30;92.40;;;;;;5069033;28;20033;-81
2021/09/14 00:05:47;;;;;;;6.57;5.05;;;18.30;92.30;;;;;;5069326;28;20665;-79
2021/09/14 00:08:12;;;;;;;9.20;5.75;;;18.40;92.30;;;;;;5069198;28;20507;-79
2021/09/14 00:10:38;;;;;;;7.35;6.22;;;18.50;92.40;;;;;;5070413;28;20032;-80
2021/09/14 00:13:03;;;;;;;8.15;6.65;;;18.50;92.30;;;;;;5069511;28;20086;-80
2021/09/14 00:15:29;;;;;;;10.25;6.78;;;18.70;92.50;;;;;;5070491;28;20028;-80
2021/09/14 00:17:55;;;;;;;8.65;5.97;;;18.80;92.40;;;;;;5069176;28;20029;-80
2021/09/14 00:20:20;;;;;;;9.60;7.00;;;19.00;92.30;;;;;;5070747;28;20043;-80
2021/09/14 00:22:46;;;;;;;11.57;6.97;;;19.00;92.10;;;;;;5070757;28;20043;-81
2021/09/14 00:25:12;;;;;;;9.80;7.60;;;19.10;92.00;;;;;;5070492;28;20032;-80
2021/09/14 00:27:37;;;;;;;10.35;7.05;;;19.20;92.00;;;;;;5069215;28;20025;-81
2021/09/14 00:30:04;;;;;;;9.30;6.88;;;19.30;92.00;;;;;;5070365;28;20037;-81
2021/09/14 00:32:29;;;;;;;9.57;7.13;;;19.30;91.90;;;;;;5069347;28;20020;-81
2021/09/14 00:34:55;;;;;;;11.07;6.95;;;19.40;92.00;;;;;;5069625;28;20028;-82
2021/09/14 00:37:20;;;;;;;11.10;7.25;;;19.40;91.90;;;;;;5070662;28;20060;-81
2021/09/14 00:39:46;;;;;;;10.07;7.05;;;19.40;91.90;;;;;;5070757;28;20467;-81
2021/09/14 00:42:12;;;;;;;9.07;6.65;;;19.50;92.30;;;;;;5070011;28;20046;-80
2021/09/14 00:44:38;;;;;;;7.88;6.93;;;19.50;92.00;;;;;;5069987;28;20039;-82
2021/09/14 00:47:04;;;;;;;9.05;6.78;;;19.50;92.00;;;;;;5070111;28;20063;-78
2021/09/14 00:49:30;;;;;;;10.25;7.30;;;19.50;92.00;;;;;;5071235;28;20051;-80
2021/09/14 00:51:56;;;;;;;7.78;6.63;;;19.50;92.00;;;;;;5069136;28;20024;-79
2021/09/14 00:54:23;;;;;;;12.50;6.85;;;19.40;92.10;;;;;;5069666;28;20036;-79
2021/09/14 00:56:49;;;;;;;7.78;6.15;;;19.40;92.10;;;;;;5070489;28;20021;-81
2021/09/14 00:59:15;;;;;;;9.38;6.93;;;19.30;92.00;;;;;;5070554;28;20535;-80
2021/09/14 01:01:41;;;;;;;9.30;5.47;;;19.20;91.90;;;;;;5068482;28;20029;-79
2021/09/14 01:04:07;;;;;;;7.82;5.90;;;19.10;91.90;;;;;;5069712;28;20032;-82
2021/09/14 01:06:33;;;;;;;6.45;4.93;;;19.00;91.90;;;;;;5068820;28;20021;-81
2021/09/14 01:09:01;;;;;;;7.57;5.38;;;18.90;91.90;;;;;;5068486;28;20052;-80
2021/09/14 01:11:30;;;;;;;9.07;5.72;;;18.70;92.10;;;;;;5052387;28;20063;-82
2021/09/14 01:14:06;;;;;;;7.70;6.15;;;18.60;92.30;;;;;;5069163;28;20558;-80
2021/09/14 01:16:34;;;;;;;6.60;5.15;;;18.50;92.50;;;;;;5068070;28;20036;-81
2021/09/14 01:19:01;;;;;;;9.95;6.03;;;18.40;92.70;;;;;;5068210;28;20469;-82
2021/09/14 01:21:28;;;;;;;7.20;5.45;;;18.30;92.90;;;;;;5069437;28;20543;-81
2021/09/14 01:23:54;;;;;;;6.95;5.75;;;18.20;93.10;;;;;;5069694;28;20029;-81
2021/09/14 01:26:20;;;;;;;8.52;6.20;;;18.20;93.50;;;;;;5069668;28;20031;-81
2021/09/14 01:28:46;;;;;;;8.23;5.50;;;18.10;93.50;;;;;;5069556;28;20029;-80
2021/09/14 01:31:11;;;;;;;8.65;5.32;;;18.10;93.50;;;;;;5068531;28;20135;-81
2021/09/14 01:33:37;;;;;;;9.35;6.60;;;18.00;93.50;;;;;;5069163;28;20107;-82
2021/09/14 01:36:03;;;;;;;8.15;6.03;;;18.10;93.50;;;;;;5069266;28;20094;-80
2021/09/14 01:38:29;;;;;;;6.30;5.30;;;18.10;93.50;;;;;;5069405;28;20040;-82
2021/09/14 01:40:54;;;;;;;7.30;5.07;;;18.00;93.40;;;;;;5069280;28;20039;-81
2021/09/14 01:43:20;;;;;;;6.32;5.55;;;18.00;93.40;;;;;;5067562;28;20036;-81
2021/09/14 01:45:46;;;;;;;7.20;5.55;;;18.00;93.50;;;;;;5069038;28;20085;-79
2021/09/14 01:48:11;;;;;;;8.85;5.95;;;17.90;93.70;;;;;;5068890;28;20040;-80
2021/09/14 01:50:38;;;;;;;6.95;5.47;;;17.80;93.80;;;;;;5069056;28;20032;-80
2021/09/14 01:53:04;;;;;;;7.05;4.95;;;17.80;93.90;;;;;;5068939;28;20044;-81
2021/09/14 01:55:30;;;;;;;7.30;5.40;;;17.70;94.00;;;;;;5067187;28;20481;-81
2021/09/14 01:57:57;;;;;;;7.88;5.88;;;17.70;94.20;;;;;;5067869;28;20429;-82
2021/09/14 02:00:35;;;;;;;7.22;5.65;;;17.60;94.40;;;;;;5068191;28;20066;-83
2021/09/14 02:58:45;;;;;;;10.38;6.70;;;17.20;94.90;;;;;;5072559;28;20490;-82
2021/09/14 03:01:13;;;;;;;8.23;5.53;;;17.20;94.90;;;;;;5072280;28;20406;-81
2021/09/14 03:03:42;;;;;;;6.50;5.30;;;17.10;94.90;;;;;;5072076;28;20060;-83
2021/09/14 03:06:09;;;;;;;5.82;5.05;;;17.10;95.00;;;;;;5070811;28;20489;-81
2021/09/14 03:08:38;;;;;;;7.18;5.78;;;17.10;95.00;;;;;;5070790;28;20052;-81
2021/09/14 03:11:06;;;;;;;8.85;5.60;;;17.10;95.10;;;;;;5071475;28;20032;-81
2021/09/14 03:13:32;;;;;;;13.32;6.15;;;17.10;95.30;;;;;;5071583;28;20055;-83
2021/09/14 03:15:58;;;;;;;8.45;5.72;;;17.00;95.20;;;;;;5070819;28;20031;-82
2021/09/14 03:18:24;;;;;;;7.45;5.13;;;17.00;95.30;;;;;;5070706;28;20020;-82
2021/09/14 03:20:49;;;;;;;7.07;5.20;;;16.90;95.30;;;;;;5072032;28;20031;-82
2021/09/14 03:23:15;;;;;;;10.93;5.05;;;16.90;95.40;;;;;;5070473;28;20036;-82
2021/09/14 03:25:40;;;;;;;7.20;5.28;;;16.90;95.50;;;;;;5072565;28;20029;-83
2021/09/14 03:28:06;;;;;;;12.18;6.10;;;16.90;95.50;;;;;;5070514;28;20497;-82
2021/09/14 03:30:32;;;;;;;7.30;5.82;;;16.90;95.60;;;;;;5070315;28;20421;-82
2021/09/14 03:32:58;;;;;;;7.72;5.90;;;16.90;95.60;;;;;;5070313;28;20060;-83
2021/09/14 03:35:23;;;;;;;6.60;5.07;;;16.80;95.70;;;;;;5069522;28;20524;-80
2021/09/14 03:37:49;;;;;;;;;;;16.80;95.70;;;;;;5070828;28;20025;-81
2021/09/14 03:40:14;;;;;;;6.93;5.30;;;16.80;96.10;;;;;;5070987;28;19908;-80
2021/09/14 03:42:40;;;;;;;7.78;5.53;;;16.80;95.90;;;;;;5071263;28;20029;-82
2021/09/14 03:45:06;;;;;;;9.43;5.75;;;16.80;95.90;;;;;;5071384;28;20024;-80
2021/09/14 03:47:32;;;;;;;7.15;5.93;;;16.70;95.90;;;;;;5069479;28;20394;-82
2021/09/14 03:49:58;;;;;;;8.35;6.00;;;16.70;95.80;;;;;;5069484;28;20028;-81
2021/09/14 03:52:23;;;;;;;7.30;6.38;;;16.70;95.80;;;;;;5069457;28;20020;-81
2021/09/14 03:54:49;;;;;;;8.73;6.30;;;16.60;95.90;;;;;;5070767;28;20085;-82
2021/09/14 03:57:14;;;;;;;7.78;6.25;;;16.50;96.00;;;;;;5071829;28;20036;-83
2021/09/14 03:59:41;;;;;;;10.18;7.53;;;16.50;96.10;;;;;;5072253;28;20032;-84
2021/09/14 04:02:28;;;;;;;11.57;8.15;;;16.40;96.10;;;;;;5069995;28;20489;-82
2021/09/14 04:07:37;;;;;;;8.13;5.32;;;16.30;96.50;;;;;;5070905;28;20467;-82
2021/09/14 04:10:07;;;;;;;10.25;6.30;;;16.30;96.70;;;;;;5069606;28;20052;-83
2021/09/14 04:12:36;;;;;;;6.93;5.72;;;16.20;96.90;;;;;;5069182;28;20028;-80
2021/09/14 04:15:02;;;;;;;8.02;5.72;;;16.10;97.00;;;;;;5070714;28;20047;-79
2021/09/14 04:17:27;;;;;;;7.03;5.45;;;16.10;97.20;;;;;;5070167;28;20028;-81
2021/09/14 04:19:53;;;;;;;;;;;16.10;97.30;;;;;;5070731;28;20548;-80
2021/09/14 04:22:19;;;;;;;9.15;6.00;;;16.00;97.40;;;;;;5070200;28;19995;-80
2021/09/14 04:24:44;;;;;;;8.13;5.78;;;15.90;97.50;;;;;;5070288;28;20107;-81
2021/09/14 04:27:10;;;;;;;;;;;16.00;97.60;;;;;;5070903;28;20123;-81
2021/09/14 04:29:35;;;;;;;12.80;6.00;;;15.90;97.60;;;;;;5069839;28;20316;-83
2021/09/14 04:32:01;;;;;;;;;;;15.90;97.70;;;;;;5070578;28;20517;-82
2021/09/14 04:34:27;;;;;;;9.82;5.35;;;15.90;97.70;;;;;;5070385;28;19908;-83
2021/09/14 04:36:52;;;;;;;8.88;5.53;;;15.90;97.70;;;;;;5070684;28;20039;-82
2021/09/14 04:39:19;;;;;;;8.35;5.07;;;16.00;97.60;;;;;;5070218;28;20448;-82
2021/09/14 04:41:44;;;;;;;6.13;4.90;;;16.00;97.70;;;;;;5070380;28;20024;-81
2021/09/14 04:44:10;;;;;;;;;;;16.00;97.50;;;;;;5070311;28;20038;-82
2021/09/14 04:46:36;;;;;;;6.82;5.60;;;16.00;97.50;;;;;;5069990;28;19908;-81
2021/09/14 04:49:03;;;;;;;9.57;5.78;;;16.10;97.50;;;;;;5068533;28;20095;-81
2021/09/14 04:51:28;;;;;;;7.75;5.22;;;16.10;97.40;;;;;;5069489;28;20051;-81
2021/09/14 04:53:54;;;;;;;;;;;16.30;97.20;;;;;;5070232;28;20025;-82
2021/09/14 04:56:20;;;;;;;12.43;5.72;;;16.50;96.70;;;;;;5069593;28;19904;-82
2021/09/14 04:58:49;;;;;;;;;;;16.60;96.50;;;;;;5068759;28;20116;-80
2021/09/14 05:01:16;;;;;;;9.52;4.57;;;16.60;96.40;;;;;;5069209;28;19909;-80
2021/09/14 05:03:41;;;;;;;6.13;4.75;;;16.70;96.10;;;;;;5069522;28;20260;-82
2021/09/14 05:06:07;;;;;;;7.97;4.88;;;16.80;95.90;;;;;;5069719;28;20037;-81
2021/09/14 05:08:34;;;;;;;9.00;5.00;;;16.80;95.90;;;;;;5068229;28;20135;-82
2021/09/14 05:11:01;;;;;;;9.10;4.90;;;16.90;95.80;;;;;;5068854;28;20463;-80
2021/09/14 05:13:26;;;;;;;7.60;5.80;;;17.00;95.80;;;;;;5068294;28;20492;-82
2021/09/14 05:15:53;;;;;;;7.55;5.03;;;17.00;95.70;;;;;;5067792;28;20024;-80
2021/09/14 05:18:18;;;;;;;6.30;4.85;;;17.20;95.50;;;;;;5067781;28;20028;-80
2021/09/14 05:20:46;;;;;;;11.88;5.88;;;17.30;95.40;;;;;;5069070;28;20442;-79
2021/09/14 05:23:16;;;;;;;11.23;4.75;;;17.50;95.50;;;;;;5067963;28;20460;-80
2021/09/14 05:25:44;;;;;;;8.60;5.32;;;17.80;95.00;;;;;;5068455;28;20559;-79
2021/09/14 05:28:14;;;;;;;7.50;5.53;;;18.20;94.50;;;;;;5069111;28;20059;-79
2021/09/14 05:30:41;;;;;;;7.78;4.95;;;18.80;93.70;;;;;;5069082;28;20040;-79
2021/09/14 05:33:06;;;;;;;8.70;5.05;;;19.30;92.70;;;;;;5068876;28;20024;-79
2021/09/14 05:35:59;;;;;;;13.55;4.60;;;20.00;91.70;;;;;;5068802;28;20396;-80
2021/09/14 05:38:26;;;;;;;15.63;6.05;;;20.50;90.30;;;;;;5065450;28;20033;-79
2021/09/14 05:40:57;;;;;;;10.05;5.70;;;20.90;89.30;;;;;;5068885;28;20138;-79
2021/09/14 05:43:25;;;;;;;7.18;4.88;;;21.30;87.30;;;;;;5068640;28;20024;-79
2021/09/14 05:45:51;;;;;;;10.65;6.05;;;21.50;85.80;;;;;;5067590;28;20024;-79
2021/09/14 05:48:17;;;;;;;12.68;4.35;;;21.50;85.30;;;;;;5068803;28;20032;-79
2021/09/14 05:50:43;;;;;;;10.75;4.90;;;21.60;85.90;;;;;;5068728;28;20032;-80
2021/09/14 05:53:09;;;;;;;7.03;4.43;;;21.50;85.50;;;;;;5068994;28;20016;-80
2021/09/14 05:55:39;;;;;;;9.05;5.00;;;21.40;85.60;;;;;;5068625;28;20020;-80
2021/09/14 05:58:06;;;;;;;10.18;5.35;;;21.50;85.30;;;;;;5068757;28;20054;-80
2021/09/14 06:00:33;;;;;;;11.95;5.03;;;21.50;85.30;;;;;;5067680;28;20505;-80
2021/09/14 06:03:01;;;;;;;6.15;4.45;;;21.60;85.50;;;;;;5067684;28;20037;-79
2021/09/14 06:05:27;;;;;;;11.38;5.28;;;21.60;85.20;;;;;;5066358;28;20524;-78
2021/09/14 06:07:53;;;;;;;9.95;5.07;;;21.80;85.10;;;;;;5068366;28;20044;-79
2021/09/14 06:10:21;;;;;;;7.80;5.38;;;21.90;84.80;;;;;;5068341;28;20134;-79
2021/09/14 06:12:46;;;;;;;10.05;4.95;;;22.20;84.00;;;;;;5068538;28;20055;-79
2021/09/14 06:15:12;;;;;;;9.88;4.70;;;22.30;82.70;;;;;;5068502;28;20245;-80
2021/09/14 06:17:40;;;;;;;10.98;4.47;;;22.80;81.40;;;;;;5068311;28;20568;-79
2021/09/14 06:20:07;;;;;;;8.80;4.95;;;23.10;79.70;;;;;;5068267;28;20078;-79
2021/09/14 06:22:32;;;;;;;8.85;4.70;;;23.60;78.20;;;;;;5068404;28;20037;-78
2021/09/14 06:24:58;;;;;;;12.13;5.05;;;24.00;76.40;;;;;;5068118;28;20073;-79
2021/09/14 06:27:24;;;;;;;6.95;4.97;;;24.40;74.60;;;;;;5067880;28;20165;-79
2021/09/14 06:29:49;;;;;;;8.38;4.53;;;24.60;73.30;;;;;;5066751;28;20132;-80
2021/09/14 06:32:15;;;;;;;10.93;4.30;;;24.80;72.10;;;;;;5066804;28;20443;-80
2021/09/14 06:34:40;;;;;;;4.80;4.15;;;25.10;70.80;;;;;;5068238;28;20520;-79
2021/09/14 06:37:08;;;;;;;9.70;4.88;;;25.40;69.10;;;;;;5068120;28;20025;-79
2021/09/14 06:39:34;;;;;;;7.28;4.60;;;25.80;67.60;;;;;;5067647;28;20040;-79
2021/09/14 06:41:59;;;;;;;6.40;4.72;;;26.00;66.60;;;;;;5067184;28;20028;-80
2021/09/14 06:44:25;;;;;;;7.90;4.28;;;26.30;65.90;;;;;;5067949;28;20371;-79
2021/09/14 06:46:51;;;;;;;6.00;4.15;;;26.80;63.40;;;;;;5068008;28;20029;-80
2021/09/14 06:49:17;;;;;;;6.97;3.97;;;27.50;61.60;;;;;;5068049;28;20115;-79
2021/09/14 06:51:43;;;;;;;4.72;3.28;;;28.10;58.10;;;;;;5067777;28;20074;-81
2021/09/14 06:54:09;;;;;;;5.68;3.70;;;28.70;54.90;;;;;;5067840;28;20025;-79
2021/09/14 06:56:35;;;;;;;5.75;3.38;;;29.00;53.10;;;;;;5067817;28;20107;-81
2021/09/14 06:59:00;;;;;;;5.90;3.42;;;29.50;52.00;;;;;;5066460;28;20112;-77
2021/09/14 07:01:26;;;;;;;5.88;3.60;;;29.80;51.40;;;;;;5067465;28;20037;-79
2021/09/14 07:03:53;;;;;;;4.30;3.30;;;30.10;50.00;;;;;;5066539;28;20028;-80
2021/09/14 07:06:19;;;;;;;4.65;4.10;;;30.30;48.80;;;;;;5066353;28;20059;-81
2021/09/14 07:08:44;;;;;;;10.15;3.90;;;30.70;47.40;;;;;;5067406;28;20441;-81
2021/09/14 07:11:10;;;;;;;3.58;3.20;;;30.80;46.70;;;;;;5067700;28;20036;-80
2021/09/14 07:13:36;;;;;;;7.88;4.47;;;30.80;46.50;;;;;;5070879;28;20505;-80
2021/09/14 07:16:01;;;;;;;4.63;3.58;;;30.70;46.70;;;;;;5071349;28;20536;-80
2021/09/14 07:18:27;;;;;;;5.43;3.55;;;30.90;46.00;;;;;;5069842;28;20051;-79
2021/09/14 07:20:53;;;;;;;4.25;3.13;;;31.30;45.40;;;;;;5070290;28;20032;-80
2021/09/14 07:23:20;;;;;;;10.00;4.25;;;31.50;44.80;;;;;;5071264;28;20032;-79
2021/09/14 07:25:46;;;;;;;6.13;3.90;;;31.60;44.40;;;;;;5071184;28;20024;-81
2021/09/14 07:28:12;;;;;;;6.47;3.65;;;31.50;44.40;;;;;;5071286;28;20033;-80
2021/09/14 07:30:38;;;;;;;10.85;3.83;;;31.60;44.10;;;;;;5070736;28;20409;-80
2021/09/14 07:33:04;;;;;;;5.47;3.63;;;31.70;44.20;;;;;;5071164;28;20556;-81
2021/09/14 07:35:30;;;;;;;12.95;3.28;;;32.00;42.70;;;;;;5070910;28;20020;-80
2021/09/14 07:37:56;;;;;;;3.17;2.42;;;31.90;42.30;;;;;;5071018;28;20521;-81
2021/09/14 07:40:22;;;;;;;4.10;2.83;;;31.70;41.20;;;;;;5071092;28;20031;-80
2021/09/14 07:42:48;;;;;;;3.75;2.80;;;31.60;41.20;;;;;;5070973;28;20105;-81
2021/09/14 07:45:14;;;;;;;5.03;3.60;;;31.50;41.30;;;;;;5070984;28;20055;-81
2021/09/14 07:47:39;;;;;;;4.90;2.47;;;31.20;41.20;;;;;;5070887;28;20032;-81
2021/09/14 07:50:05;;;;;;;5.13;3.03;;;30.80;42.40;;;;;;5070773;28;20040;-81
2021/09/14 07:52:31;;;;;;;3.83;2.53;;;30.80;42.10;;;;;;5070917;28;20029;-81
2021/09/14 07:54:57;;;;;;;3.47;2.95;;;30.50;42.60;;;;;;5070572;28;20405;-80
2021/09/14 07:57:22;;;;;;;6.63;3.22;;;30.50;42.50;;;;;;5070276;28;20029;-80
2021/09/14 07:59:48;;;;;;;4.25;2.72;;;30.10;43.00;;;;;;5069136;28;20039;-78
2021/09/14 08:02:14;;;;;;;4.25;2.67;;;29.80;44.70;;;;;;5070408;28;20024;-80
2021/09/14 08:04:39;;;;;;;9.00;2.45;;;29.80;44.90;;;;;;5069283;28;20078;-79
2021/09/14 08:07:05;;;;;;;6.50;3.00;;;30.00;44.40;;;;;;5070586;28;20020;-81
2021/09/14 08:09:31;;;;;;;3.22;2.40;;;29.80;44.60;;;;;;5070038;28;20056;-81
2021/09/14 08:11:58;;;;;;;6.80;3.22;;;29.70;45.40;;;;;;5069147;28;20032;-81
2021/09/14 08:14:24;;;;;;;4.45;2.90;;;29.80;45.00;;;;;;5070470;28;20064;-81
2021/09/14 08:16:50;;;;;;;7.60;3.13;;;30.00;44.40;;;;;;5070572;28;20044;-80
2021/09/14 08:19:16;;;;;;;4.22;3.05;;;30.40;44.30;;;;;;5070565;28;20028;-80
2021/09/14 08:21:42;;;;;;;5.15;3.05;;;30.60;44.10;;;;;;5070229;28;20027;-81
2021/09/14 08:24:09;;;;;;;10.45;3.13;;;30.60;44.20;;;;;;5068411;28;20497;-79
2021/09/14 08:26:35;;;;;;;6.13;3.33;;;30.90;43.90;;;;;;5069848;28;20021;-78
2021/09/14 08:29:01;;;;;;;6.53;3.30;;;31.40;43.30;;;;;;5068793;28;20040;-80
2021/09/14 08:31:27;;;;;;;6.95;3.58;;;31.80;42.10;;;;;;5069666;28;20029;-79
2021/09/14 08:33:52;;;;;;;5.32;3.42;;;32.20;41.70;;;;;;5069840;28;20370;-79
2021/09/14 08:36:18;;;;;;;7.18;3.63;;;32.60;41.60;;;;;;5069854;28;20029;-80
2021/09/14 08:38:44;;;;;;;3.97;2.80;;;32.90;40.80;;;;;;5069817;28;20024;-81
2021/09/14 08:41:13;;;;;;;4.70;3.05;;;32.90;40.10;;;;;;5069926;28;20016;-79
2021/09/14 08:43:44;;;;;;;4.25;3.30;;;32.80;39.50;;;;;;5067838;28;20461;-80
2021/09/14 08:46:12;;;;;;;9.30;3.17;;;33.00;39.60;;;;;;5069108;28;20048;-80
2021/09/14 08:48:37;;;;;;;6.43;3.00;;;33.40;39.40;;;;;;5068522;28;20337;-79
2021/09/14 08:51:04;;;;;;;5.18;3.22;;;33.60;39.00;;;;;;5067262;28;20473;-77
2021/09/14 08:53:31;;;;;;;6.78;3.33;;;34.00;38.50;;;;;;5068605;28;20028;-78
2021/09/14 08:55:58;;;;;;;6.55;3.22;;;34.10;38.10;;;;;;5069626;28;20029;-78
2021/09/14 08:58:24;;;;;;;5.32;2.97;;;34.10;36.40;;;;;;5068159;28;20023;-78
2021/09/14 09:00:51;;;;;;;4.88;3.00;;;33.60;37.50;;;;;;5069384;28;20033;-78
2021/09/14 09:03:27;;;;;;;3.53;2.80;;;33.60;37.70;;;;;;5069440;28;20101;-78
2021/09/14 09:05:53;;;;;;;9.20;3.00;;;33.90;37.70;;;;;;5069431;28;20028;-77
2021/09/14 09:08:22;;;;;;;5.70;3.17;;;33.90;37.40;;;;;;5067932;28;20056;-78
2021/09/14 09:11:17;;;;;;;4.15;2.67;;;34.10;36.50;;;;;;5069194;28;20082;-78
2021/09/14 09:13:43;;;;;;;3.53;2.80;;;34.00;36.90;;;;;;5051866;28;20045;-78
2021/09/14 09:16:20;;;;;;;6.85;2.75;;;33.90;36.40;;;;;;5069134;28;20081;-78
2021/09/14 09:18:56;;;;;;;7.93;3.10;;;33.50;37.40;;;;;;5068937;28;20500;-79
2021/09/14 09:21:31;;;;;;;7.00;2.90;;;33.70;38.30;;;;;;5068897;28;20024;-79
2021/09/14 09:23:59;;;;;;;6.27;3.10;;;34.10;37.20;;;;;;5068899;28;20039;-79
2021/09/14 09:26:41;;;;;;;4.28;3.33;;;34.30;36.80;;;;;;5069003;28;20036;-78
2021/09/14 09:29:09;;;;;;;7.30;3.20;;;34.60;36.10;;;;;;5069075;28;20397;-78
2021/09/14 09:31:36;;;;;;;7.53;3.38;;;34.50;36.30;;;;;;5068807;28;20086;-79
2021/09/14 09:34:06;;;;;;;4.00;3.30;;;34.70;36.30;;;;;;5068592;28;20032;-79
2021/09/14 09:36:36;;;;;;;7.50;2.83;;;34.40;36.70;;;;;;5068750;28;20028;-79
2021/09/14 09:39:05;;;;;;;6.07;3.08;;;34.50;36.80;;;;;;5067338;28;20035;-79
2021/09/14 09:41:35;;;;;;;8.65;3.17;;;34.40;37.00;;;;;;5068672;28;20028;-79
2021/09/14 09:44:08;;;;;;;5.18;2.65;;;34.20;36.80;;;;;;5068630;28;20435;-79
2021/09/14 09:46:35;;;;;;;8.00;2.63;;;33.90;36.90;;;;;;5068726;28;20536;-79
2021/09/14 09:49:03;;;;;;;8.32;3.10;;;33.30;37.80;;;;;;5067486;28;20029;-79
2021/09/14 09:51:29;;;;;;;7.70;2.88;;;33.40;38.20;;;;;;5068552;28;20079;-80
2021/09/14 09:53:55;;;;;;;7.22;3.58;;;33.80;38.10;;;;;;5067383;28;20025;-78
2021/09/14 09:56:23;;;;;;;3.33;2.60;;;34.30;37.50;;;;;;5068680;28;20037;-80
2021/09/14 09:58:51;;;;;;;12.20;2.78;;;34.50;37.10;;;;;;5068480;28;20033;-79
2021/09/14 10:01:19;;;;;;;6.35;3.33;;;34.90;36.70;;;;;;5068543;28;20067;-79
2021/09/14 10:03:54;;;;;;;4.88;3.10;;;35.30;36.70;;;;;;5067331;28;20081;-78
2021/09/14 10:06:21;;;;;;;7.07;3.03;;;35.40;35.50;;;;;;5067073;28;20033;-79
2021/09/14 10:08:55;;;;;;;9.07;3.00;;;35.60;35.80;;;;;;5068161;28;20109;-79
2021/09/14 10:11:29;;;;;;;5.30;3.15;;;35.80;35.40;;;;;;5068738;28;20033;-78
2021/09/14 10:14:10;;;;;;;7.28;3.22;;;36.20;35.20;;;;;;5068384;28;20028;-79
2021/09/14 10:16:48;;;;;;;4.97;2.90;;;36.40;34.40;;;;;;5068248;28;20021;-78
2021/09/14 10:19:25;;;;;;;11.73;3.40;;;36.20;34.50;;;;;;5067997;28;20066;-77
2021/09/14 10:22:08;;;;;;;6.60;3.22;;;35.80;35.00;;;;;;5068480;28;20578;-79
2021/09/14 10:24:35;;;;;;;5.32;3.28;;;35.40;35.60;;;;;;5066514;28;20067;-79
2021/09/14 10:27:03;;;;;;;16.23;3.78;;;34.70;35.40;;;;;;5068382;28;20025;-79
2021/09/14 10:29:29;;;;;;;5.80;3.00;;;33.60;36.60;;;;;;5066626;28;20041;-79
2021/09/14 10:32:07;;;;;;;6.18;3.13;;;32.50;38.00;;;;;;5066765;28;20078;-78
2021/09/14 10:34:34;;;;;;;11.02;3.15;;;32.10;40.20;;;;;;5068491;28;20040;-78
2021/09/14 10:37:00;;;;;;;8.90;3.30;;;31.80;40.30;;;;;;5067684;28;20043;-81
2021/09/14 10:39:27;;;;;;;10.95;3.88;;;31.50;40.30;;;;;;5067935;28;20393;-81
2021/09/14 10:41:54;;;;;;;5.25;3.05;;;31.00;40.60;;;;;;5066864;28;20086;-81
2021/09/14 10:44:28;;;;;;;8.93;3.78;;;30.70;41.50;;;;;;5068013;28;20548;-80
2021/09/14 10:47:36;;;;;;;9.73;3.30;;;30.50;41.80;;;;;;5070214;28;20041;-80
2021/09/14 10:50:03;;;;;;;4.43;3.20;;;30.10;41.90;;;;;;4989959;28;20148;-81
2021/09/14 10:52:51;;;;;;;6.35;2.85;;;29.90;43.00;;;;;;4990044;28;20129;-81
2021/09/14 10:55:19;;;;;;;9.65;3.10;;;29.80;42.40;;;;;;5042992;28;20041;-80
2021/09/14 10:57:50;;;;;;;9.50;3.38;;;29.50;42.50;;;;;;5073529;28;20027;-82
2021/09/14 11:00:19;;;;;;;5.15;3.03;;;29.40;43.40;;;;;;5072150;28;20020;-82
2021/09/14 11:03:05;;;;;;;4.82;3.65;;;29.40;43.90;;;;;;5072251;28;20089;-81
2021/09/14 11:05:36;;;;;;;11.73;4.50;;;29.30;43.30;;;;;;5071555;28;20028;-81
2021/09/14 11:08:08;;;;;;;5.03;3.75;;;29.20;43.80;;;;;;5071753;28;20079;-80
2021/09/14 11:10:39;;;;;;;4.18;3.55;;;29.20;43.80;;;;;;5071821;28;20040;-81
2021/09/14 11:13:06;;;;;;;4.63;3.15;;;29.10;43.90;;;;;;5072026;28;20103;-81
2021/09/14 11:15:32;;;;;;;6.45;3.53;;;29.10;44.00;;;;;;5069781;28;20037;-80
2021/09/14 11:17:58;;;;;;;6.70;4.00;;;29.20;44.10;;;;;;5071272;28;20541;-80
2021/09/14 11:20:26;;;;;;;6.13;3.08;;;29.20;44.00;;;;;;5071224;28;20033;-78
2021/09/14 11:22:53;;;;;;;7.82;3.92;;;29.10;43.90;;;;;;5071036;28;20082;-79
2021/09/14 11:25:21;;;;;;;9.40;3.22;;;29.10;43.70;;;;;;5070675;28;20025;-79
2021/09/14 11:27:57;;;;;;;6.68;3.33;;;28.80;44.10;;;;;;5071301;28;20037;-79
2021/09/14 11:30:23;;;;;;;;;;;28.70;44.60;;;;;;5071464;28;20037;-78
2021/09/14 11:32:50;;;;;;;7.85;3.25;;;28.60;44.50;;;;;;5070902;28;19954;-77
2021/09/14 11:35:17;;;;;;;6.43;3.40;;;28.40;44.60;;;;;;5068878;28;20447;-78
2021/09/14 11:37:42;;;;;;;5.32;3.53;;;28.40;45.30;;;;;;5069324;28;20059;-79
2021/09/14 11:40:19;;;;;;;5.35;3.55;;;28.50;45.50;;;;;;5071189;28;20064;-77
2021/09/14 11:42:55;;;;;;;6.47;3.75;;;28.70;45.00;;;;;;5069791;28;20086;-80
2021/09/14 11:45:24;;;;;;;8.88;3.65;;;29.00;45.00;;;;;;5069611;28;20043;-79
2021/09/14 11:47:53;;;;;;;8.65;3.30;;;29.10;44.30;;;;;;5071054;28;20024;-79
2021/09/14 11:50:27;;;;;;;4.45;3.33;;;29.20;44.30;;;;;;5070952;28;20783;-78
2021/09/14 11:53:16;;;;;;;4.38;3.20;;;29.30;44.20;;;;;;5070944;28;20110;-77
2021/09/14 11:55:48;;;;;;;6.32;3.17;;;29.30;43.40;;;;;;5069384;28;20037;-80
2021/09/14 11:58:26;;;;;;;5.65;3.42;;;29.30;43.70;;;;;;5070092;28;20032;-80
2021/09/14 12:00:55;;;;;;;11.80;4.43;;;29.30;43.90;;;;;;5070695;28;20473;-79
2021/09/14 12:03:22;;;;;;;41.70;6.65;;;29.30;43.70;;;;;;5069295;28;20493;-80
2021/09/14 12:05:57;;;;;;;21.95;5.72;;;29.10;43.80;;;;;;5069194;28;20102;-80
2021/09/14 12:08:31;;;;;;;23.15;4.78;;;29.00;44.50;;;;;;5070606;28;20059;-80
2021/09/14 12:10:57;;;;;;;7.57;3.78;;;28.90;44.30;;;;;;5070268;28;20158;-77
2021/09/14 12:13:23;;;;;;;8.98;4.53;;;28.90;44.30;;;;;;5070771;28;20024;-79
2021/09/14 12:15:56;;;;;;;10.77;3.38;;;28.90;44.20;;;;;;5069971;28;20035;-80
2021/09/14 12:18:21;;;;;;;6.55;3.80;;;29.00;44.30;;;;;;5069674;28;20025;-80
2021/09/14 12:20:47;;;;;;;5.43;3.30;;;29.00;44.10;;;;;;5070448;28;20029;-79
2021/09/14 12:23:14;;;;;;;4.38;3.25;;;29.00;43.90;;;;;;5070368;28;20033;-79
2021/09/14 12:25:40;;;;;;;5.75;3.55;;;29.00;44.00;;;;;;5070315;28;20085;-79
2021/09/14 12:28:06;;;;;;;10.23;3.03;;;28.90;43.70;;;;;;5070337;28;20032;-79
2021/09/14 12:30:33;;;;;;;4.75;3.58;;;28.90;43.40;;;;;;5069033;28;20033;-79
2021/09/14 12:32:58;;;;;;;9.27;3.58;;;28.80;43.20;;;;;;5068665;28;20039;-80
2021/09/14 12:35:24;;;;;;;3.35;3.00;;;28.80;43.60;;;;;;5070126;28;20029;-80
2021/09/14 12:37:50;;;;;;;5.45;3.72;;;28.80;43.30;;;;;;5069982;28;20489;-79
2021/09/14 12:40:16;;;;;;;13.20;4.03;;;28.70;43.60;;;;;;5069993;28;20029;-78
2021/09/14 12:42:41;;;;;;;4.15;2.90;;;28.60;43.80;;;;;;5070146;28;20532;-78
2021/09/14 12:45:07;;;;;;;5.30;3.90;;;28.60;44.00;;;;;;5069957;28;20028;-80
2021/09/14 12:47:33;;;;;;;5.88;3.85;;;28.70;44.30;;;;;;5068435;28;20021;-81
2021/09/14 12:49:59;;;;;;;5.57;3.60;;;28.70;43.70;;;;;;5070853;28;20040;-80
2021/09/14 12:52:26;;;;;;;5.20;3.50;;;28.70;43.20;;;;;;5068408;28;20485;-79
2021/09/14 12:54:52;;;;;;;5.60;3.35;;;28.50;43.30;;;;;;5067768;28;20043;-79
2021/09/14 12:57:18;;;;;;;5.15;3.58;;;28.60;43.60;;;;;;5068860;28;20024;-79
2021/09/14 12:59:43;;;;;;;3.78;3.15;;;28.70;43.90;;;;;;5068331;28;20106;-79
2021/09/14 13:02:12;;;;;;;6.75;3.42;;;28.60;43.60;;;;;;5067314;28;20142;-78
2021/09/14 13:04:38;;;;;;;8.13;3.65;;;28.70;44.40;;;;;;5067241;28;20027;-79
2021/09/14 13:07:04;;;;;;;6.15;3.00;;;28.70;43.60;;;;;;5068622;28;20033;-80
2021/09/14 13:09:29;;;;;;;7.18;3.95;;;28.80;43.30;;;;;;5068116;28;20064;-81
2021/09/14 13:11:55;;;;;;;3.42;2.75;;;28.90;43.10;;;;;;5067981;28;20098;-79
2021/09/14 13:17:05;;;;;;;4.90;2.80;;;29.00;42.80;;;;;;5069656;28;20031;-80
2021/09/14 13:19:30;;;;;;;5.28;3.35;;;29.00;42.50;;;;;;5069237;28;20033;-80
2021/09/14 13:21:56;;;;;;;7.95;3.08;;;29.00;42.50;;;;;;5069198;28;20401;-80
2021/09/14 13:24:21;;;;;;;4.45;3.35;;;29.00;42.90;;;;;;5069292;28;20033;-80
2021/09/14 13:26:48;;;;;;;7.57;3.20;;;29.00;43.10;;;;;;5069047;28;20107;-80
2021/09/14 13:29:13;;;;;;;5.45;3.38;;;28.90;42.70;;;;;;5069004;28;20144;-78
2021/09/14 13:31:39;;;;;;;4.05;3.28;;;28.90;42.80;;;;;;5067348;28;20185;-79
2021/09/14 13:34:05;;;;;;;17.50;4.10;;;28.90;43.30;;;;;;5069152;28;20028;-79
2021/09/14 13:36:30;;;;;;;9.57;2.88;;;28.80;43.00;;;;;;5069085;28;20509;-79
2021/09/14 13:38:56;;;;;;;10.27;3.50;;;28.80;43.30;;;;;;5068956;28;20032;-78
2021/09/14 13:41:28;;;;;;;4.25;3.22;;;28.80;43.10;;;;;;5068790;28;20057;-80
2021/09/14 13:43:58;;;;;;;8.45;3.10;;;28.90;43.20;;;;;;5069014;28;20032;-79
2021/09/14 13:46:24;;;;;;;8.02;3.33;;;28.90;42.90;;;;;;5068896;28;20078;-78
2021/09/14 13:48:52;;;;;;;5.78;3.20;;;29.00;42.80;;;;;;5067802;28;20032;-79
2021/09/14 13:51:26;;;;;;;7.72;2.97;;;28.90;42.40;;;;;;5068810;28;20078;-79